Terminal Aerodrome Forecast
Issued by NWS Quad Cities IA IL

Home | Current Version | Previous Version | Text Only | Print | Product List | Glossary On
Versions: 1 2 3 4 5 6 7 8 9 10 11 12 13 14 15 16 17 18 19 20 21 22 23
000
FTUS43 KDVN 281100
TAFDBQ
TAF
KDBQ 281122Z 2812/2912 17012KT 3SM BR OVC005
     FM281400 17012KT 4SM BR OVC006
     FM281600 17014G21KT P6SM OVC015
     FM281800 16017G25KT P6SM BKN030
     FM290100 17012KT 5SM BR SCT020 OVC100
     FM290800 32015G22KT 3SM BR OVC010=

USA.gov is the U.S. government's official web portal to all federal, state and local government web resources and services.